LOT7AZ EPWA-UBBB
Flight info
| Callsign | LOT7AZ |
|---|---|
| Flight time | N/A |
| Altitude | 35000 |
| Route | XIMBA DCT OMAVA DCT ROBTU DCT KENIN DCT KARIL DCT REVDA DCT UDROS UN743 GAKSU DCT ROLIN/N0452F370 DCT DISKA M737 VERCA M747 SUBUT T923 ERLEV |
| Aircraft | B738/M-SDE2E3FGHIRWXY/LB1 |
Departure
| Time | 2026-05-03 21:55 |
|---|---|
| Airport | Warsaw Chopin Airport (EPWA) |
Arrival
| Time | N/A |
|---|---|
| Airport | Heydar Aliyev International Airport (UBBB) |
| Time | Latitude | Longitude | Altitude | Speed | Heading |
|---|---|---|---|---|---|
| 2026-05-03 21:39 | 52.17459 | 20.96760 | 349 ft | 0 kts | 135° |
| 2026-05-03 21:43 | 52.17471 | 20.96741 | 359 ft | 4 kts | 137° |
| 2026-05-03 21:43 | 52.17491 | 20.96711 | 354 ft | 4 kts | 136° |
| 2026-05-03 21:44 | 52.17511 | 20.96683 | 351 ft | 4 kts | 144° |
| 2026-05-03 21:44 | 52.17533 | 20.96660 | 353 ft | 4 kts | 155° |
| 2026-05-03 21:44 | 52.17542 | 20.96653 | 358 ft | 1 kts | 155° |
| 2026-05-03 21:47 | 52.17537 | 20.96655 | 352 ft | 2 kts | 168° |
| 2026-05-03 21:47 | 52.17517 | 20.96641 | 355 ft | 5 kts | 224° |
| 2026-05-03 21:47 | 52.17492 | 20.96588 | 349 ft | 7 kts | 239° |
| 2026-05-03 21:47 | 52.17459 | 20.96491 | 357 ft | 12 kts | 243° |
| 2026-05-03 21:48 | 52.17410 | 20.96391 | 350 ft | 10 kts | 179° |
| 2026-05-03 21:48 | 52.17337 | 20.96440 | 348 ft | 13 kts | 152° |
| 2026-05-03 21:48 | 52.17252 | 20.96514 | 350 ft | 15 kts | 152° |
| 2026-05-03 21:48 | 52.17153 | 20.96601 | 348 ft | 17 kts | 152° |
| 2026-05-03 21:49 | 52.17048 | 20.96692 | 352 ft | 17 kts | 151° |
| 2026-05-03 21:49 | 52.16938 | 20.96788 | 352 ft | 19 kts | 152° |
| 2026-05-03 21:49 | 52.16826 | 20.96886 | 351 ft | 17 kts | 151° |
| 2026-05-03 21:49 | 52.16719 | 20.96983 | 348 ft | 19 kts | 151° |
| 2026-05-03 21:50 | 52.16647 | 20.97080 | 353 ft | 10 kts | 106° |
| 2026-05-03 21:50 | 52.16614 | 20.97217 | 366 ft | 15 kts | 114° |
| 2026-05-03 21:50 | 52.16567 | 20.97381 | 348 ft | 17 kts | 115° |
| 2026-05-03 21:50 | 52.16524 | 20.97548 | 352 ft | 10 kts | 111° |
| 2026-05-03 21:51 | 52.16502 | 20.97638 | 354 ft | 9 kts | 112° |
| 2026-05-03 21:51 | 52.16475 | 20.97742 | 349 ft | 10 kts | 114° |
| 2026-05-03 21:51 | 52.16445 | 20.97850 | 351 ft | 11 kts | 114° |
| 2026-05-03 21:51 | 52.16413 | 20.97968 | 352 ft | 12 kts | 116° |
| 2026-05-03 21:52 | 52.16390 | 20.98053 | 350 ft | 7 kts | 114° |
| 2026-05-03 21:52 | 52.16371 | 20.98122 | 356 ft | 7 kts | 114° |
| 2026-05-03 21:52 | 52.16352 | 20.98191 | 351 ft | 7 kts | 114° |
| 2026-05-03 21:52 | 52.16330 | 20.98268 | 350 ft | 8 kts | 117° |
| 2026-05-03 21:53 | 52.16293 | 20.98332 | 356 ft | 8 kts | 155° |
| 2026-05-03 21:53 | 52.16243 | 20.98318 | 351 ft | 8 kts | 205° |
| 2026-05-03 21:53 | 52.16197 | 20.98278 | 352 ft | 7 kts | 208° |
| 2026-05-03 21:53 | 52.16183 | 20.98265 | 351 ft | 0 kts | 208° |
| 2026-05-03 21:54 | 52.16182 | 20.98264 | 351 ft | 1 kts | 208° |
| 2026-05-03 21:54 | 52.16159 | 20.98228 | 354 ft | 9 kts | 232° |
| 2026-05-03 21:54 | 52.16182 | 20.98098 | 354 ft | 17 kts | 297° |
| 2026-05-03 21:54 | 52.16286 | 20.97731 | 348 ft | 69 kts | 294° |
| 2026-05-03 21:55 | 52.16575 | 20.96689 | 352 ft | 135 kts | 294° |
| 2026-05-03 21:55 | 52.16882 | 20.95581 | 362 ft | 173 kts | 291° |
| 2026-05-03 21:55 | 52.17430 | 20.93632 | 802 ft | 197 kts | 293° |
| 2026-05-03 21:55 | 52.18009 | 20.91596 | 1772 ft | 190 kts | 289° |
| 2026-05-03 21:56 | 52.18552 | 20.89682 | 2632 ft | 187 kts | 289° |
| 2026-05-03 21:56 | 52.18973 | 20.87702 | 3431 ft | 185 kts | 276° |
| 2026-05-03 21:56 | 52.19006 | 20.85575 | 4074 ft | 189 kts | 261° |
| 2026-05-03 21:56 | 52.18749 | 20.83297 | 4590 ft | 199 kts | 257° |
| 2026-05-03 21:57 | 52.18483 | 20.81181 | 5085 ft | 206 kts | 256° |
| 2026-05-03 21:57 | 52.18163 | 20.78846 | 5580 ft | 219 kts | 256° |
| 2026-05-03 21:57 | 52.17809 | 20.76280 | 5852 ft | 244 kts | 256° |
| 2026-05-03 21:57 | 52.17386 | 20.73536 | 6447 ft | 254 kts | 254° |
| 2026-05-03 21:58 | 52.16898 | 20.70708 | 7060 ft | 262 kts | 250° |
| 2026-05-03 21:58 | 52.16077 | 20.68005 | 7669 ft | 271 kts | 235° |
| 2026-05-03 21:58 | 52.14828 | 20.65676 | 8323 ft | 277 kts | 223° |
| 2026-05-03 21:58 | 52.13344 | 20.63652 | 9272 ft | 271 kts | 219° |
| 2026-05-03 21:59 | 52.11871 | 20.61799 | 10232 ft | 264 kts | 217° |
| 2026-05-03 21:59 | 52.10325 | 20.60130 | 10787 ft | 275 kts | 212° |
| 2026-05-03 21:59 | 52.08609 | 20.58456 | 10953 ft | 299 kts | 212° |
| 2026-05-03 21:59 | 52.06642 | 20.56549 | 11138 ft | 322 kts | 212° |
| 2026-05-03 22:00 | 52.04774 | 20.54708 | 11344 ft | 340 kts | 212° |
| 2026-05-03 22:00 | 52.02731 | 20.52660 | 11863 ft | 348 kts | 213° |
| 2026-05-03 22:00 | 52.00662 | 20.50571 | 12541 ft | 351 kts | 213° |
| 2026-05-03 22:00 | 51.98590 | 20.48581 | 13200 ft | 355 kts | 206° |
| 2026-05-03 22:01 | 51.96143 | 20.47623 | 13824 ft | 364 kts | 183° |
| 2026-05-03 22:01 | 51.93624 | 20.48193 | 14421 ft | 372 kts | 163° |
| 2026-05-03 22:01 | 51.91294 | 20.50115 | 15019 ft | 381 kts | 144° |
| 2026-05-03 22:01 | 51.89365 | 20.53098 | 15620 ft | 386 kts | 136° |
| 2026-05-03 22:02 | 51.87520 | 20.56279 | 16172 ft | 391 kts | 135° |
| 2026-05-03 22:02 | 51.85665 | 20.59511 | 16719 ft | 395 kts | 135° |
| 2026-05-03 22:02 | 51.83770 | 20.62777 | 17289 ft | 399 kts | 135° |
| 2026-05-03 22:02 | 51.81839 | 20.66030 | 17854 ft | 402 kts | 138° |
| 2026-05-03 22:03 | 51.79650 | 20.68810 | 18370 ft | 403 kts | 152° |
| 2026-05-03 22:03 | 51.77117 | 20.70700 | 18866 ft | 401 kts | 164° |
| 2026-05-03 22:03 | 51.74410 | 20.71867 | 19379 ft | 402 kts | 168° |
| 2026-05-03 22:03 | 51.71685 | 20.72935 | 19843 ft | 406 kts | 168° |
| 2026-05-03 22:04 | 51.68923 | 20.74020 | 20303 ft | 410 kts | 168° |
| 2026-05-03 22:04 | 51.66147 | 20.75120 | 20737 ft | 414 kts | 168° |
| 2026-05-03 22:04 | 51.63336 | 20.76245 | 21133 ft | 419 kts | 167° |
| 2026-05-03 22:04 | 51.60495 | 20.77390 | 21606 ft | 422 kts | 167° |
| 2026-05-03 22:05 | 51.57660 | 20.78538 | 22083 ft | 424 kts | 167° |
| 2026-05-03 22:05 | 51.54767 | 20.79712 | 22532 ft | 427 kts | 167° |
| 2026-05-03 22:05 | 51.51876 | 20.80886 | 22953 ft | 431 kts | 167° |
| 2026-05-03 22:05 | 51.48873 | 20.82104 | 23394 ft | 434 kts | 167° |
| 2026-05-03 22:06 | 51.46066 | 20.83242 | 23769 ft | 437 kts | 167° |
| 2026-05-03 22:06 | 51.43105 | 20.84440 | 24124 ft | 439 kts | 167° |
| 2026-05-03 22:06 | 51.40113 | 20.85649 | 24499 ft | 441 kts | 167° |
| 2026-05-03 22:06 | 51.37147 | 20.86846 | 24842 ft | 443 kts | 167° |
| 2026-05-03 22:07 | 51.34154 | 20.88052 | 25181 ft | 446 kts | 167° |
| 2026-05-03 22:07 | 51.31151 | 20.89261 | 25515 ft | 448 kts | 166° |
| 2026-05-03 22:07 | 51.28113 | 20.90481 | 25850 ft | 450 kts | 166° |
| 2026-05-03 22:07 | 51.25079 | 20.91699 | 26168 ft | 453 kts | 166° |
| 2026-05-03 22:08 | 51.22014 | 20.92927 | 26478 ft | 455 kts | 166° |
| 2026-05-03 22:08 | 51.18931 | 20.94160 | 26775 ft | 458 kts | 166° |
| 2026-05-03 22:08 | 51.15829 | 20.95400 | 27094 ft | 460 kts | 166° |
| 2026-05-03 22:08 | 51.12715 | 20.96642 | 27407 ft | 461 kts | 166° |
| 2026-05-03 22:09 | 51.09557 | 20.97901 | 27717 ft | 463 kts | 166° |
| 2026-05-03 22:09 | 51.06428 | 20.99146 | 28019 ft | 465 kts | 166° |
| 2026-05-03 22:09 | 51.03276 | 21.00398 | 28291 ft | 467 kts | 166° |
| 2026-05-03 22:10 | 50.96941 | 21.02910 | 28837 ft | 471 kts | 166° |
| 2026-05-03 22:10 | 50.93757 | 21.04170 | 29107 ft | 473 kts | 166° |
| 2026-05-03 22:10 | 50.90544 | 21.05439 | 29401 ft | 474 kts | 166° |
| 2026-05-03 22:10 | 50.87356 | 21.06697 | 29805 ft | 473 kts | 166° |
| 2026-05-03 22:11 | 50.84171 | 21.07951 | 30234 ft | 471 kts | 166° |
| 2026-05-03 22:11 | 50.80996 | 21.09200 | 30539 ft | 470 kts | 166° |
| 2026-05-03 22:11 | 50.77803 | 21.10455 | 30781 ft | 471 kts | 166° |
| 2026-05-03 22:11 | 50.74628 | 21.11700 | 31046 ft | 472 kts | 166° |
| 2026-05-03 22:12 | 50.71457 | 21.12943 | 31372 ft | 470 kts | 166° |
| 2026-05-03 22:12 | 50.68276 | 21.14187 | 31698 ft | 469 kts | 166° |
| 2026-05-03 22:12 | 50.65111 | 21.15423 | 31984 ft | 469 kts | 166° |
| 2026-05-03 22:12 | 50.61950 | 21.16657 | 32242 ft | 469 kts | 166° |
| 2026-05-03 22:13 | 50.58787 | 21.17889 | 32523 ft | 468 kts | 166° |
| 2026-05-03 22:13 | 50.55619 | 21.19121 | 32823 ft | 467 kts | 166° |
| 2026-05-03 22:13 | 50.52455 | 21.20351 | 33054 ft | 467 kts | 166° |
| 2026-05-03 22:13 | 50.49315 | 21.21569 | 33320 ft | 467 kts | 166° |
| 2026-05-03 22:14 | 50.46156 | 21.22793 | 33599 ft | 467 kts | 166° |
| 2026-05-03 22:14 | 50.43002 | 21.24013 | 33875 ft | 466 kts | 166° |
| 2026-05-03 22:14 | 50.39849 | 21.25231 | 34121 ft | 466 kts | 166° |
| 2026-05-03 22:14 | 50.36733 | 21.26434 | 34363 ft | 464 kts | 166° |
| 2026-05-03 22:15 | 50.33611 | 21.27637 | 34628 ft | 463 kts | 166° |
| 2026-05-03 22:15 | 50.30464 | 21.28847 | 34831 ft | 463 kts | 165° |
| 2026-05-03 22:15 | 50.27350 | 21.30044 | 34947 ft | 465 kts | 165° |
| 2026-05-03 22:16 | 50.21061 | 21.32456 | 35061 ft | 466 kts | 165° |
| 2026-05-03 22:16 | 50.14752 | 21.34869 | 35065 ft | 464 kts | 165° |
| 2026-05-03 22:17 | 50.08537 | 21.37239 | 35076 ft | 462 kts | 166° |
| 2026-05-03 22:17 | 50.02311 | 21.39608 | 35073 ft | 461 kts | 165° |
| 2026-05-03 22:18 | 49.96111 | 21.41960 | 35093 ft | 461 kts | 165° |
| 2026-05-03 22:18 | 49.89881 | 21.44318 | 35088 ft | 461 kts | 165° |
| 2026-05-03 22:19 | 49.83631 | 21.46677 | 35091 ft | 463 kts | 165° |
| 2026-05-03 22:19 | 49.77366 | 21.49035 | 35098 ft | 464 kts | 165° |
| 2026-05-03 22:20 | 49.71038 | 21.51410 | 35100 ft | 466 kts | 165° |
| 2026-05-03 22:20 | 49.64887 | 21.53713 | 35101 ft | 467 kts | 165° |
| 2026-05-03 22:21 | 49.58446 | 21.56118 | 35106 ft | 468 kts | 165° |
| 2026-05-03 22:21 | 49.52063 | 21.58496 | 35109 ft | 470 kts | 164° |
| 2026-05-03 22:22 | 49.46735 | 21.60475 | 35122 ft | 470 kts | 164° |
| 2026-05-03 22:22 | 49.40377 | 21.62831 | 35118 ft | 471 kts | 164° |
| 2026-05-03 22:23 | 49.33950 | 21.65206 | 35118 ft | 472 kts | 164° |
| 2026-05-03 22:23 | 49.27570 | 21.67557 | 35124 ft | 472 kts | 164° |
| 2026-05-03 22:24 | 49.21216 | 21.69893 | 35125 ft | 471 kts | 164° |
| 2026-05-03 22:24 | 49.14819 | 21.72238 | 35149 ft | 471 kts | 164° |
| 2026-05-03 22:25 | 49.08453 | 21.74566 | 35126 ft | 470 kts | 164° |
| 2026-05-03 22:25 | 49.02097 | 21.76885 | 35135 ft | 470 kts | 164° |
| 2026-05-03 22:26 | 48.95739 | 21.79199 | 35130 ft | 469 kts | 164° |
| 2026-05-03 22:26 | 48.89398 | 21.81492 | 35132 ft | 469 kts | 165° |
| 2026-05-03 22:27 | 48.82959 | 21.83075 | 35141 ft | 469 kts | 171° |
| 2026-05-03 22:27 | 48.76445 | 21.84322 | 35131 ft | 469 kts | 171° |
| 2026-05-03 22:28 | 48.70011 | 21.85608 | 35135 ft | 469 kts | 170° |
| 2026-05-03 22:28 | 48.63511 | 21.86970 | 35131 ft | 469 kts | 170° |
| 2026-05-03 22:29 | 48.57037 | 21.88337 | 35131 ft | 469 kts | 170° |
| 2026-05-03 22:29 | 48.50575 | 21.89696 | 35130 ft | 469 kts | 170° |
| 2026-05-03 22:30 | 48.44103 | 21.91051 | 35135 ft | 470 kts | 170° |
| 2026-05-03 22:30 | 48.37668 | 21.92642 | 35122 ft | 468 kts | 161° |
| 2026-05-03 22:31 | 48.31762 | 21.96535 | 35132 ft | 461 kts | 146° |
| 2026-05-03 22:31 | 48.26315 | 22.01629 | 35144 ft | 462 kts | 145° |
| 2026-05-03 22:32 | 48.20845 | 22.06725 | 35137 ft | 463 kts | 146° |
| 2026-05-03 22:32 | 48.15345 | 22.11764 | 35138 ft | 464 kts | 146° |
| 2026-05-03 22:33 | 48.09821 | 22.16781 | 35140 ft | 464 kts | 146° |
| 2026-05-03 22:33 | 48.04295 | 22.21786 | 35141 ft | 465 kts | 146° |
| 2026-05-03 22:34 | 47.98766 | 22.26784 | 35153 ft | 465 kts | 146° |
| 2026-05-03 22:34 | 47.93219 | 22.31787 | 35142 ft | 465 kts | 146° |
| 2026-05-03 22:35 | 47.87683 | 22.36770 | 35146 ft | 464 kts | 146° |
| 2026-05-03 22:35 | 47.82147 | 22.41743 | 35147 ft | 463 kts | 145° |
| 2026-05-03 22:36 | 47.77309 | 22.47825 | 35151 ft | 454 kts | 126° |
| 2026-05-03 22:36 | 47.73397 | 22.55159 | 35145 ft | 453 kts | 124° |
| 2026-05-03 22:37 | 47.69509 | 22.62523 | 35169 ft | 452 kts | 124° |
| 2026-05-03 22:37 | 47.65599 | 22.69837 | 35152 ft | 452 kts | 125° |
| 2026-05-03 22:38 | 47.61678 | 22.77100 | 35152 ft | 452 kts | 125° |
| 2026-05-03 22:38 | 47.57706 | 22.84422 | 35156 ft | 452 kts | 125° |
| 2026-05-03 22:39 | 47.53763 | 22.91668 | 35160 ft | 452 kts | 125° |
| 2026-05-03 22:39 | 47.49837 | 22.98866 | 35163 ft | 452 kts | 125° |
| 2026-05-03 22:40 | 47.45891 | 23.06085 | 35164 ft | 452 kts | 125° |
| 2026-05-03 22:40 | 47.41911 | 23.13344 | 35173 ft | 452 kts | 125° |
| 2026-05-03 22:41 | 47.37971 | 23.20513 | 35170 ft | 452 kts | 125° |
| 2026-05-03 22:41 | 47.33974 | 23.27767 | 35175 ft | 451 kts | 125° |
| 2026-05-03 22:42 | 47.30017 | 23.34926 | 35171 ft | 451 kts | 125° |
| 2026-05-03 22:42 | 47.26054 | 23.42079 | 35188 ft | 450 kts | 124° |
| 2026-05-03 22:43 | 47.22645 | 23.48218 | 35179 ft | 449 kts | 124° |
| 2026-05-03 22:43 | 47.18700 | 23.55305 | 35179 ft | 448 kts | 124° |
| 2026-05-03 22:44 | 47.14750 | 23.62383 | 35169 ft | 448 kts | 124° |
| 2026-05-03 22:44 | 47.10800 | 23.69442 | 35168 ft | 447 kts | 124° |
| 2026-05-03 22:45 | 47.06821 | 23.76534 | 35174 ft | 446 kts | 124° |
| 2026-05-03 22:45 | 47.02875 | 23.83550 | 35174 ft | 446 kts | 124° |
| 2026-05-03 22:46 | 46.98931 | 23.90544 | 35173 ft | 445 kts | 124° |
| 2026-05-03 22:46 | 46.94983 | 23.97526 | 35179 ft | 445 kts | 124° |
| 2026-05-03 22:47 | 46.91031 | 24.04500 | 35178 ft | 446 kts | 124° |
| 2026-05-03 22:47 | 46.87073 | 24.11467 | 35181 ft | 446 kts | 124° |
| 2026-05-03 22:48 | 46.83104 | 24.18432 | 35167 ft | 446 kts | 124° |
| 2026-05-03 22:48 | 46.79130 | 24.25390 | 35187 ft | 446 kts | 124° |
| 2026-05-03 22:49 | 46.75145 | 24.32350 | 35194 ft | 447 kts | 124° |
| 2026-05-03 22:49 | 46.71128 | 24.39349 | 35176 ft | 447 kts | 124° |
| 2026-05-03 22:50 | 46.67133 | 24.46290 | 35163 ft | 447 kts | 124° |
| 2026-05-03 22:50 | 46.63131 | 24.53224 | 35167 ft | 447 kts | 124° |
| 2026-05-03 22:51 | 46.59139 | 24.60126 | 35172 ft | 446 kts | 124° |
| 2026-05-03 22:51 | 46.55136 | 24.67030 | 35169 ft | 446 kts | 124° |
| 2026-05-03 22:52 | 46.51135 | 24.73912 | 35169 ft | 446 kts | 124° |
| 2026-05-03 22:52 | 46.47778 | 24.79673 | 35174 ft | 446 kts | 125° |
| 2026-05-03 22:53 | 46.43770 | 24.86536 | 35201 ft | 446 kts | 124° |
| 2026-05-03 22:53 | 46.39751 | 24.93401 | 35192 ft | 447 kts | 125° |
| 2026-05-03 22:54 | 46.35692 | 25.00316 | 35185 ft | 448 kts | 125° |
| 2026-05-03 22:54 | 46.31657 | 25.07174 | 35183 ft | 448 kts | 125° |
| 2026-05-03 22:55 | 46.27617 | 25.14023 | 35177 ft | 448 kts | 125° |
| 2026-05-03 22:55 | 46.23572 | 25.20863 | 35184 ft | 448 kts | 125° |
| 2026-05-03 22:56 | 46.19515 | 25.27706 | 35182 ft | 448 kts | 125° |
| 2026-05-03 22:56 | 46.15452 | 25.34542 | 35181 ft | 449 kts | 125° |
| 2026-05-03 22:57 | 46.11384 | 25.41371 | 35177 ft | 449 kts | 125° |
| 2026-05-03 22:57 | 46.07294 | 25.48219 | 35189 ft | 449 kts | 125° |
| 2026-05-03 22:58 | 46.03221 | 25.55021 | 35178 ft | 448 kts | 125° |
| 2026-05-03 22:58 | 45.99175 | 25.61761 | 35167 ft | 447 kts | 125° |
| 2026-05-03 22:59 | 45.95114 | 25.68509 | 35160 ft | 446 kts | 125° |
| 2026-05-03 22:59 | 45.91058 | 25.75236 | 35175 ft | 445 kts | 126° |
| 2026-05-03 23:00 | 45.87007 | 25.81935 | 35156 ft | 444 kts | 126° |
| 2026-05-03 23:00 | 45.82926 | 25.88669 | 35172 ft | 443 kts | 126° |
| 2026-05-03 23:01 | 45.78884 | 25.95323 | 35184 ft | 442 kts | 126° |
| 2026-05-03 23:01 | 45.74837 | 26.01969 | 35189 ft | 443 kts | 127° |
| 2026-05-03 23:02 | 45.70784 | 26.08609 | 35186 ft | 443 kts | 128° |
| 2026-05-03 23:02 | 45.66727 | 26.15239 | 35188 ft | 443 kts | 128° |
| 2026-05-03 23:03 | 45.62662 | 26.21866 | 35186 ft | 444 kts | 128° |
| 2026-05-03 23:03 | 45.58586 | 26.28496 | 35206 ft | 444 kts | 128° |
| 2026-05-03 23:04 | 45.54495 | 26.35132 | 35192 ft | 446 kts | 128° |
| 2026-05-03 23:04 | 45.50394 | 26.41770 | 35185 ft | 446 kts | 128° |
| 2026-05-03 23:05 | 45.46283 | 26.48408 | 35182 ft | 446 kts | 128° |
| 2026-05-03 23:05 | 45.42170 | 26.55033 | 35181 ft | 446 kts | 129° |
| 2026-05-03 23:06 | 45.38060 | 26.61638 | 35171 ft | 446 kts | 129° |
| 2026-05-03 23:06 | 45.33920 | 26.68275 | 35151 ft | 445 kts | 129° |
| 2026-05-03 23:07 | 45.29805 | 26.74856 | 35141 ft | 444 kts | 129° |
| 2026-05-03 23:07 | 45.25726 | 26.81364 | 35160 ft | 443 kts | 129° |
| 2026-05-03 23:08 | 45.21614 | 26.87910 | 35129 ft | 442 kts | 129° |
| 2026-05-03 23:08 | 45.17516 | 26.94417 | 35135 ft | 441 kts | 129° |
| 2026-05-03 23:09 | 45.13432 | 27.00888 | 35135 ft | 440 kts | 129° |
| 2026-05-03 23:09 | 45.09356 | 27.07331 | 35144 ft | 439 kts | 130° |
| 2026-05-03 23:10 | 45.05282 | 27.13757 | 35125 ft | 438 kts | 130° |
| 2026-05-03 23:10 | 45.01220 | 27.20148 | 35109 ft | 437 kts | 130° |
| 2026-05-03 23:11 | 44.97162 | 27.26517 | 35110 ft | 436 kts | 130° |
| 2026-05-03 23:11 | 44.93137 | 27.32822 | 35112 ft | 435 kts | 130° |
| 2026-05-03 23:12 | 44.89061 | 27.39193 | 35110 ft | 434 kts | 130° |
| 2026-05-03 23:12 | 44.85041 | 27.45461 | 35118 ft | 434 kts | 130° |
| 2026-05-03 23:13 | 44.80984 | 27.51772 | 35121 ft | 434 kts | 130° |
| 2026-05-03 23:13 | 44.76931 | 27.58064 | 35123 ft | 435 kts | 130° |
| 2026-05-03 23:14 | 44.72861 | 27.64367 | 35114 ft | 436 kts | 130° |
| 2026-05-03 23:14 | 44.68780 | 27.70673 | 35113 ft | 436 kts | 130° |
| 2026-05-03 23:15 | 44.64690 | 27.76978 | 35109 ft | 437 kts | 130° |
| 2026-05-03 23:15 | 44.60582 | 27.83297 | 35113 ft | 438 kts | 130° |
| 2026-05-03 23:16 | 44.56470 | 27.89607 | 35105 ft | 439 kts | 131° |
| 2026-05-03 23:16 | 44.52343 | 27.95927 | 35109 ft | 440 kts | 131° |
| 2026-05-03 23:17 | 44.48202 | 28.02253 | 35108 ft | 441 kts | 131° |
| 2026-05-03 23:17 | 44.44050 | 28.08582 | 35102 ft | 442 kts | 132° |
| 2026-05-03 23:18 | 44.39892 | 28.14906 | 35109 ft | 442 kts | 132° |
| 2026-05-03 23:18 | 44.35723 | 28.21233 | 35101 ft | 442 kts | 132° |
| 2026-05-03 23:19 | 44.31546 | 28.27557 | 35100 ft | 441 kts | 132° |
| 2026-05-03 23:19 | 44.27376 | 28.33857 | 35101 ft | 440 kts | 133° |
| 2026-05-03 23:20 | 44.23239 | 28.40093 | 35077 ft | 430 kts | 133° |
| 2026-05-03 23:20 | 44.19184 | 28.46190 | 35093 ft | 429 kts | 133° |
| 2026-05-03 23:21 | 44.15132 | 28.52271 | 35089 ft | 429 kts | 133° |
| 2026-05-03 23:21 | 44.11031 | 28.58413 | 35077 ft | 430 kts | 134° |
| 2026-05-03 23:22 | 44.04967 | 28.67468 | 35094 ft | 430 kts | 134° |
| 2026-05-03 23:22 | 44.00861 | 28.73583 | 35082 ft | 430 kts | 134° |
| 2026-05-03 23:23 | 43.96799 | 28.79621 | 35081 ft | 430 kts | 134° |
| 2026-05-03 23:23 | 43.92709 | 28.85686 | 35077 ft | 430 kts | 134° |
| 2026-05-03 23:24 | 43.88617 | 28.91742 | 35082 ft | 430 kts | 134° |
| 2026-05-03 23:24 | 43.84527 | 28.97781 | 35076 ft | 430 kts | 134° |
| 2026-05-03 23:25 | 43.80440 | 29.03803 | 35074 ft | 429 kts | 134° |
| 2026-05-03 23:25 | 43.77016 | 29.08842 | 35070 ft | 429 kts | 135° |
| 2026-05-03 23:26 | 43.72929 | 29.14842 | 35066 ft | 429 kts | 135° |
| 2026-05-03 23:26 | 43.68893 | 29.20854 | 35070 ft | 428 kts | 134° |
| 2026-05-03 23:27 | 43.64850 | 29.26915 | 35054 ft | 428 kts | 134° |
| 2026-05-03 23:27 | 43.60819 | 29.32941 | 35068 ft | 427 kts | 134° |
| 2026-05-03 23:28 | 43.56784 | 29.38950 | 35043 ft | 426 kts | 134° |
| 2026-05-03 23:28 | 43.52759 | 29.44929 | 35040 ft | 424 kts | 134° |
| 2026-05-03 23:29 | 43.48754 | 29.50866 | 35042 ft | 423 kts | 134° |
| 2026-05-03 23:29 | 43.44750 | 29.56787 | 35045 ft | 421 kts | 135° |
| 2026-05-03 23:30 | 43.40763 | 29.62672 | 35033 ft | 419 kts | 135° |
| 2026-05-03 23:30 | 43.36804 | 29.68504 | 35027 ft | 416 kts | 135° |
| 2026-05-03 23:31 | 43.32850 | 29.74315 | 35023 ft | 415 kts | 135° |
| 2026-05-03 23:31 | 43.28905 | 29.80103 | 35027 ft | 415 kts | 135° |
| 2026-05-03 23:32 | 43.24960 | 29.85878 | 35016 ft | 415 kts | 135° |
| 2026-05-03 23:32 | 43.20974 | 29.91700 | 35016 ft | 416 kts | 135° |
| 2026-05-03 23:33 | 43.17027 | 29.97455 | 35018 ft | 418 kts | 135° |
| 2026-05-03 23:33 | 43.13028 | 30.03274 | 35016 ft | 419 kts | 135° |
| 2026-05-03 23:34 | 43.09015 | 30.09102 | 35008 ft | 419 kts | 135° |
| 2026-05-03 23:34 | 43.05023 | 30.14888 | 35000 ft | 417 kts | 135° |
| 2026-05-03 23:35 | 43.01041 | 30.20647 | 34993 ft | 416 kts | 135° |
| 2026-05-03 23:35 | 42.97071 | 30.26377 | 35004 ft | 414 kts | 135° |
| 2026-05-03 23:36 | 42.93119 | 30.32069 | 34983 ft | 413 kts | 135° |
| 2026-05-03 23:36 | 42.89195 | 30.37712 | 34978 ft | 411 kts | 135° |
| 2026-05-03 23:37 | 42.85261 | 30.43356 | 34978 ft | 410 kts | 135° |
| 2026-05-03 23:37 | 42.81342 | 30.48970 | 34981 ft | 408 kts | 135° |
| 2026-05-03 23:38 | 42.77435 | 30.54555 | 34970 ft | 407 kts | 135° |
| 2026-05-03 23:38 | 42.74164 | 30.60832 | 34968 ft | 409 kts | 120° |
| 2026-05-03 23:39 | 42.72158 | 30.68108 | 34971 ft | 414 kts | 109° |
| 2026-05-03 23:39 | 42.70709 | 30.75680 | 34966 ft | 414 kts | 108° |
| 2026-05-03 23:40 | 42.69263 | 30.83248 | 34947 ft | 413 kts | 108° |
| 2026-05-03 23:40 | 42.67797 | 30.90785 | 34951 ft | 412 kts | 109° |
| 2026-05-03 23:41 | 42.66316 | 30.98312 | 34948 ft | 412 kts | 109° |
| 2026-05-03 23:41 | 42.64832 | 31.05806 | 34945 ft | 411 kts | 108° |
| 2026-05-03 23:42 | 42.63345 | 31.13283 | 34942 ft | 410 kts | 109° |
| 2026-05-03 23:42 | 42.61854 | 31.20760 | 34937 ft | 410 kts | 109° |
| 2026-05-03 23:43 | 42.60363 | 31.28205 | 34934 ft | 409 kts | 109° |
| 2026-05-03 23:43 | 42.58872 | 31.35623 | 34931 ft | 409 kts | 109° |
| 2026-05-03 23:44 | 42.57374 | 31.43051 | 34934 ft | 408 kts | 109° |
| 2026-05-03 23:44 | 42.55875 | 31.50456 | 34924 ft | 407 kts | 109° |
| 2026-05-03 23:45 | 42.54372 | 31.57853 | 34925 ft | 406 kts | 109° |
| 2026-05-03 23:45 | 42.52868 | 31.65227 | 34920 ft | 405 kts | 109° |
| 2026-05-03 23:46 | 42.51364 | 31.72575 | 34913 ft | 405 kts | 109° |
| 2026-05-03 23:46 | 42.49852 | 31.79939 | 34911 ft | 404 kts | 109° |
| 2026-05-03 23:47 | 42.48342 | 31.87265 | 34910 ft | 404 kts | 109° |
| 2026-05-03 23:47 | 42.46825 | 31.94597 | 34910 ft | 404 kts | 109° |
| 2026-05-03 23:48 | 42.45306 | 32.01910 | 34905 ft | 404 kts | 109° |
| 2026-05-03 23:48 | 42.43777 | 32.09252 | 34898 ft | 404 kts | 109° |
| 2026-05-03 23:49 | 42.42253 | 32.16542 | 34892 ft | 403 kts | 109° |
| 2026-05-03 23:49 | 42.40725 | 32.23825 | 34887 ft | 402 kts | 109° |
| 2026-05-03 23:50 | 42.39452 | 32.29874 | 34889 ft | 401 kts | 109° |
| 2026-05-03 23:50 | 42.37661 | 32.38353 | 34877 ft | 401 kts | 109° |
| 2026-05-03 23:51 | 42.36128 | 32.45585 | 34883 ft | 400 kts | 109° |
| 2026-05-03 23:51 | 42.34593 | 32.52806 | 34874 ft | 400 kts | 109° |
| 2026-05-03 23:52 | 42.33147 | 32.60052 | 34868 ft | 401 kts | 103° |
| 2026-05-03 23:52 | 42.32288 | 32.67521 | 34862 ft | 402 kts | 102° |
| 2026-05-03 23:53 | 42.31490 | 32.74991 | 34863 ft | 402 kts | 102° |
| 2026-05-03 23:53 | 42.30660 | 32.82480 | 34857 ft | 402 kts | 102° |
| 2026-05-03 23:54 | 42.29809 | 32.89949 | 34859 ft | 403 kts | 102° |
| 2026-05-03 23:54 | 42.28947 | 32.97415 | 34859 ft | 403 kts | 102° |
| 2026-05-03 23:55 | 42.28078 | 33.04896 | 34858 ft | 403 kts | 102° |
| 2026-05-03 23:55 | 42.27203 | 33.12380 | 34858 ft | 403 kts | 102° |
| 2026-05-03 23:56 | 42.26325 | 33.19850 | 34856 ft | 404 kts | 102° |
| 2026-05-03 23:56 | 42.25439 | 33.27343 | 34851 ft | 404 kts | 102° |
| 2026-05-03 23:57 | 42.24551 | 33.34814 | 34843 ft | 404 kts | 103° |
| 2026-05-03 23:57 | 42.23657 | 33.42294 | 34839 ft | 404 kts | 103° |
| 2026-05-03 23:58 | 42.22758 | 33.49774 | 34850 ft | 403 kts | 103° |
| 2026-05-03 23:58 | 42.21854 | 33.57248 | 34840 ft | 403 kts | 103° |
| 2026-05-03 23:59 | 42.20947 | 33.64708 | 34847 ft | 403 kts | 103° |
| 2026-05-03 23:59 | 42.20037 | 33.72159 | 34840 ft | 403 kts | 103° |
| 2026-05-04 00:00 | 42.19120 | 33.79618 | 34835 ft | 402 kts | 103° |
| 2026-05-04 00:00 | 42.18640 | 33.87151 | 34842 ft | 405 kts | 96° |
| 2026-05-04 00:01 | 42.18468 | 33.94702 | 34847 ft | 406 kts | 96° |
| 2026-05-04 00:01 | 42.18291 | 34.02311 | 34838 ft | 405 kts | 96° |
| 2026-05-04 00:02 | 42.18085 | 34.09960 | 34840 ft | 405 kts | 96° |
| 2026-05-04 00:02 | 42.17864 | 34.17537 | 34826 ft | 405 kts | 97° |
| 2026-05-04 00:03 | 42.17635 | 34.24986 | 34236 ft | 405 kts | 94° |
| 2026-05-04 00:03 | 42.17519 | 34.28745 | 34920 ft | 403 kts | 97° |
| 2026-05-04 00:03 | 42.17399 | 34.32559 | 34855 ft | 408 kts | 97° |
| 2026-05-04 00:04 | 42.17154 | 34.40215 | 34827 ft | 409 kts | 97° |
| 2026-05-04 00:04 | 42.16906 | 34.47878 | 34818 ft | 409 kts | 97° |
| 2026-05-04 00:05 | 42.16697 | 34.54227 | 34819 ft | 408 kts | 97° |
| 2026-05-04 00:05 | 42.16440 | 34.61853 | 34813 ft | 407 kts | 97° |
| 2026-05-04 00:06 | 42.16178 | 34.69470 | 34819 ft | 406 kts | 97° |
| 2026-05-04 00:06 | 42.15912 | 34.77057 | 34814 ft | 406 kts | 97° |
| 2026-05-04 00:07 | 42.15641 | 34.84649 | 34793 ft | 406 kts | 97° |
| 2026-05-04 00:07 | 42.15364 | 34.92244 | 34807 ft | 406 kts | 97° |
| 2026-05-04 00:08 | 42.15083 | 34.99840 | 34801 ft | 406 kts | 97° |
| 2026-05-04 00:08 | 42.14796 | 35.07451 | 34811 ft | 407 kts | 97° |
| 2026-05-04 00:09 | 42.14502 | 35.15086 | 34805 ft | 409 kts | 97° |
| 2026-05-04 00:09 | 42.14204 | 35.22736 | 34804 ft | 410 kts | 97° |
| 2026-05-04 00:10 | 42.13899 | 35.30420 | 34807 ft | 411 kts | 97° |
| 2026-05-04 00:10 | 42.13588 | 35.38110 | 34791 ft | 412 kts | 97° |
| 2026-05-04 00:11 | 42.13272 | 35.45825 | 34791 ft | 412 kts | 97° |
| 2026-05-04 00:11 | 42.12950 | 35.53546 | 34780 ft | 413 kts | 97° |
| 2026-05-04 00:12 | 42.12622 | 35.61276 | 34796 ft | 414 kts | 97° |
| 2026-05-04 00:12 | 42.12289 | 35.69017 | 34791 ft | 414 kts | 97° |
| 2026-05-04 00:13 | 42.11949 | 35.76771 | 34789 ft | 415 kts | 97° |
| 2026-05-04 00:13 | 42.11605 | 35.84531 | 34786 ft | 415 kts | 97° |
| 2026-05-04 00:14 | 42.11254 | 35.92298 | 34784 ft | 416 kts | 97° |
| 2026-05-04 00:14 | 42.10899 | 36.00071 | 34784 ft | 416 kts | 98° |
| 2026-05-04 00:15 | 42.10537 | 36.07847 | 34787 ft | 416 kts | 98° |
| 2026-05-04 00:15 | 42.10171 | 36.15622 | 34786 ft | 416 kts | 98° |
| 2026-05-04 00:16 | 42.09799 | 36.23394 | 34777 ft | 415 kts | 98° |
| 2026-05-04 00:16 | 42.09423 | 36.31158 | 34779 ft | 416 kts | 98° |
| 2026-05-04 00:17 | 42.09041 | 36.38915 | 34787 ft | 416 kts | 98° |
| 2026-05-04 00:17 | 42.08653 | 36.46695 | 34784 ft | 416 kts | 98° |
| 2026-05-04 00:18 | 42.08260 | 36.54468 | 34781 ft | 417 kts | 98° |
| 2026-05-04 00:18 | 42.07860 | 36.62277 | 34781 ft | 417 kts | 98° |
| 2026-05-04 00:19 | 42.07457 | 36.70037 | 34783 ft | 417 kts | 98° |
| 2026-05-04 00:19 | 42.07048 | 36.77813 | 34784 ft | 417 kts | 98° |
| 2026-05-04 00:20 | 42.06633 | 36.85608 | 34756 ft | 417 kts | 98° |
| 2026-05-04 00:20 | 42.06209 | 36.93454 | 34777 ft | 418 kts | 98° |
| 2026-05-04 00:21 | 42.05783 | 37.01246 | 34783 ft | 418 kts | 98° |
| 2026-05-04 00:21 | 42.05351 | 37.09051 | 34782 ft | 419 kts | 98° |
| 2026-05-04 00:22 | 42.04912 | 37.16886 | 34781 ft | 420 kts | 98° |
| 2026-05-04 00:22 | 42.04468 | 37.24720 | 34781 ft | 421 kts | 98° |
| 2026-05-04 00:23 | 42.04018 | 37.32569 | 34781 ft | 421 kts | 98° |
| 2026-05-04 00:23 | 42.03561 | 37.40432 | 34767 ft | 422 kts | 98° |
| 2026-05-04 00:24 | 42.03099 | 37.48296 | 34782 ft | 422 kts | 98° |
| 2026-05-04 00:24 | 42.02630 | 37.56186 | 34770 ft | 422 kts | 98° |
| 2026-05-04 00:25 | 42.02154 | 37.64100 | 34782 ft | 423 kts | 99° |
| 2026-05-04 00:25 | 42.01673 | 37.71996 | 34784 ft | 424 kts | 99° |
| 2026-05-04 00:26 | 42.01185 | 37.79919 | 34766 ft | 425 kts | 99° |
| 2026-05-04 00:26 | 42.00692 | 37.87837 | 34781 ft | 426 kts | 99° |
| 2026-05-04 00:27 | 42.00193 | 37.95779 | 34784 ft | 427 kts | 99° |
| 2026-05-04 00:27 | 41.99683 | 38.03786 | 34782 ft | 427 kts | 99° |
| 2026-05-04 00:28 | 41.99171 | 38.11747 | 34779 ft | 427 kts | 99° |
| 2026-05-04 00:28 | 41.98653 | 38.19703 | 34768 ft | 427 kts | 99° |
| 2026-05-04 00:29 | 41.98131 | 38.27655 | 34775 ft | 427 kts | 99° |
| 2026-05-04 00:29 | 41.97602 | 38.35608 | 34775 ft | 427 kts | 99° |
| 2026-05-04 00:30 | 41.97069 | 38.43543 | 34772 ft | 427 kts | 99° |
| 2026-05-04 00:30 | 41.96530 | 38.51484 | 34772 ft | 427 kts | 99° |
| 2026-05-04 00:31 | 41.95986 | 38.59429 | 34765 ft | 426 kts | 100° |
| 2026-05-04 00:31 | 41.95433 | 38.67405 | 34777 ft | 426 kts | 100° |
| 2026-05-04 00:32 | 41.94878 | 38.75344 | 34778 ft | 427 kts | 100° |
| 2026-05-04 00:32 | 41.94317 | 38.83275 | 34773 ft | 427 kts | 100° |
| 2026-05-04 00:33 | 41.93465 | 38.95181 | 34772 ft | 427 kts | 100° |
| 2026-05-04 00:34 | 41.92890 | 39.03131 | 34768 ft | 428 kts | 100° |
| 2026-05-04 00:34 | 41.92308 | 39.11081 | 34775 ft | 428 kts | 100° |
| 2026-05-04 00:35 | 41.91716 | 39.19096 | 34776 ft | 429 kts | 100° |
| 2026-05-04 00:35 | 41.91121 | 39.27088 | 34776 ft | 430 kts | 101° |
| 2026-05-04 00:36 | 41.90517 | 39.35111 | 34775 ft | 431 kts | 101° |
| 2026-05-04 00:36 | 41.89912 | 39.43080 | 34774 ft | 431 kts | 101° |
| 2026-05-04 00:37 | 41.89293 | 39.51157 | 34775 ft | 432 kts | 101° |
| 2026-05-04 00:37 | 41.88679 | 39.59096 | 34770 ft | 431 kts | 101° |
| 2026-05-04 00:38 | 41.88054 | 39.67101 | 34775 ft | 431 kts | 101° |
| 2026-05-04 00:38 | 41.87423 | 39.75106 | 34776 ft | 431 kts | 101° |
| 2026-05-04 00:39 | 41.86785 | 39.83128 | 34769 ft | 431 kts | 101° |
| 2026-05-04 00:39 | 41.86249 | 39.89822 | 34774 ft | 432 kts | 101° |
| 2026-05-04 00:40 | 41.85602 | 39.97822 | 34769 ft | 432 kts | 101° |
| 2026-05-04 00:40 | 41.84949 | 40.05831 | 34770 ft | 432 kts | 101° |
| 2026-05-04 00:41 | 41.84292 | 40.13826 | 34773 ft | 431 kts | 101° |
| 2026-05-04 00:41 | 41.83629 | 40.21824 | 34760 ft | 431 kts | 101° |
| 2026-05-04 00:42 | 41.82957 | 40.29856 | 34763 ft | 432 kts | 101° |
| 2026-05-04 00:42 | 41.82286 | 40.37811 | 34776 ft | 432 kts | 101° |
| 2026-05-04 00:43 | 41.81605 | 40.45823 | 34771 ft | 433 kts | 101° |
| 2026-05-04 00:43 | 41.80917 | 40.53847 | 34773 ft | 434 kts | 101° |
| 2026-05-04 00:44 | 41.80222 | 40.61903 | 34764 ft | 435 kts | 101° |
| 2026-05-04 00:44 | 41.79582 | 40.69952 | 34760 ft | 436 kts | 99° |
| 2026-05-04 00:45 | 41.79169 | 40.78068 | 34761 ft | 437 kts | 98° |
| 2026-05-04 00:45 | 41.78785 | 40.86164 | 34748 ft | 437 kts | 98° |
| 2026-05-04 00:46 | 41.78370 | 40.94296 | 34732 ft | 437 kts | 98° |
| 2026-05-04 00:46 | 41.77932 | 41.02405 | 34753 ft | 436 kts | 99° |
| 2026-05-04 00:47 | 41.77482 | 41.10512 | 34760 ft | 437 kts | 99° |
| 2026-05-04 00:47 | 41.77026 | 41.18612 | 34743 ft | 437 kts | 99° |
| 2026-05-04 00:48 | 41.76564 | 41.26735 | 34751 ft | 438 kts | 99° |
| 2026-05-04 00:48 | 41.76095 | 41.34882 | 34749 ft | 438 kts | 99° |
| 2026-05-04 00:49 | 41.75618 | 41.43075 | 34732 ft | 439 kts | 99° |
| 2026-05-04 00:49 | 41.75137 | 41.51219 | 34758 ft | 439 kts | 99° |
| 2026-05-04 00:50 | 41.74812 | 41.56676 | 34769 ft | 440 kts | 99° |